CheckWX is a tool to help pilots better visualize weather data.  It is not intended as a substitute for an official pre-flight weather briefing.

08:59:30 UTC

KOUN METAR
University of Oklahoma Westheimer Airport
Norman, Oklahoma, USA
Current

25 mins ago

KOUN 280835Z AUTO 18011KT 10SM CLR 20/18 A2960 RMK AO2 PWINO T02000180
Observed
Mar-28 @ 08:35 UTC
Wind
  • 180° at 11 KTS
Visibility
10 SM
Flight Rules
VFR
Cloud Levels
  • Clear skies
Temperature
20°C / 68°F
Dewpoint
18°C / 64°F
Humidity
88%
Altimeter
29.6" Hg
Pressure
1002.42 hPa
Previous

45 mins ago

KOUN 280815Z AUTO 16012KT 10SM CLR 20/18 A2959 RMK AO2 PWINO T01960178
Observed
Mar-28 @ 08:15 UTC
Wind
  • 160° at 12 KTS
Visibility
10 SM
Flight Rules
VFR
Cloud Levels
  • Clear skies
Temperature
20°C / 68°F
Dewpoint
18°C / 64°F
Humidity
88%
Altimeter
29.59" Hg
Pressure
1002.02 hPa
Previous

1 hour ago

KOUN 280755Z AUTO 17010KT 10SM CLR 20/18 A2959 RMK AO2 PWINO T01970178
Observed
Mar-28 @ 07:55 UTC
Wind
  • 170° at 10 KTS
Visibility
10 SM
Flight Rules
VFR
Cloud Levels
  • Clear skies
Temperature
20°C / 68°F
Dewpoint
18°C / 64°F
Humidity
88%
Altimeter
29.59" Hg
Pressure
1002.02 hPa